sensor_id;sensor_type;location;lat;lon;timestamp;P1;durP1;ratioP1;P2;durP2;ratioP2
2762;SDS011;1389;51.490;7.338;2023-04-24T00:00:29;549.08;;;445.75;;
2762;SDS011;1389;51.490;7.338;2023-04-24T00:02:55;549.72;;;447.00;;
2762;SDS011;1389;51.490;7.338;2023-04-24T00:05:22;548.78;;;447.23;;
2762;SDS011;1389;51.490;7.338;2023-04-24T00:07:48;555.67;;;452.45;;
2762;SDS011;1389;51.490;7.338;2023-04-24T00:10:18;553.00;;;447.80;;
2762;SDS011;1389;51.490;7.338;2023-04-24T00:12:44;556.88;;;449.23;;
2762;SDS011;1389;51.490;7.338;2023-04-24T00:15:10;550.65;;;444.70;;
2762;SDS011;1389;51.490;7.338;2023-04-24T00:17:36;552.95;;;446.98;;
2762;SDS011;1389;51.490;7.338;2023-04-24T00:20:03;558.95;;;458.25;;
2762;SDS011;1389;51.490;7.338;2023-04-24T00:22:30;552.00;;;448.80;;
2762;SDS011;1389;51.490;7.338;2023-04-24T00:24:57;552.17;;;449.10;;
2762;SDS011;1389;51.490;7.338;2023-04-24T00:27:23;550.28;;;443.02;;
2762;SDS011;1389;51.490;7.338;2023-04-24T00:29:49;553.03;;;445.15;;
2762;SDS011;1389;51.490;7.338;2023-04-24T00:32:15;550.60;;;440.15;;
2762;SDS011;1389;51.490;7.338;2023-04-24T00:34:41;544.65;;;433.17;;
2762;SDS011;1389;51.490;7.338;2023-04-24T00:37:07;548.70;;;438.60;;
2762;SDS011;1389;51.490;7.338;2023-04-24T00:39:33;549.05;;;441.63;;
2762;SDS011;1389;51.490;7.338;2023-04-24T00:41:59;557.72;;;450.63;;
2762;SDS011;1389;51.490;7.338;2023-04-24T00:44:26;553.97;;;442.88;;
2762;SDS011;1389;51.490;7.338;2023-04-24T00:46:53;552.95;;;444.75;;
2762;SDS011;1389;51.490;7.338;2023-04-24T00:49:21;551.67;;;440.40;;
2762;SDS011;1389;51.490;7.338;2023-04-24T00:51:47;551.72;;;439.85;;
2762;SDS011;1389;51.490;7.338;2023-04-24T00:54:14;551.42;;;443.95;;
2762;SDS011;1389;51.490;7.338;2023-04-24T00:56:41;550.28;;;440.85;;
2762;SDS011;1389;51.490;7.338;2023-04-24T00:59:08;547.65;;;437.65;;
2762;SDS011;1389;51.490;7.338;2023-04-24T01:01:34;555.22;;;445.20;;
2762;SDS011;1389;51.490;7.338;2023-04-24T01:04:01;548.30;;;438.95;;
2762;SDS011;1389;51.490;7.338;2023-04-24T01:06:28;553.83;;;443.85;;
2762;SDS011;1389;51.490;7.338;2023-04-24T01:08:57;552.25;;;447.55;;
2762;SDS011;1389;51.490;7.338;2023-04-24T01:11:25;547.40;;;440.73;;
2762;SDS011;1389;51.490;7.338;2023-04-24T01:13:52;555.13;;;447.48;;
2762;SDS011;1389;51.490;7.338;2023-04-24T01:16:18;551.72;;;442.30;;
2762;SDS011;1389;51.490;7.338;2023-04-24T01:18:47;545.28;;;434.70;;
2762;SDS011;1389;51.490;7.338;2023-04-24T01:21:14;547.47;;;435.65;;
2762;SDS011;1389;51.490;7.338;2023-04-24T01:23:44;541.00;;;428.87;;
2762;SDS011;1389;51.490;7.338;2023-04-24T01:26:11;544.70;;;435.30;;
2762;SDS011;1389;51.490;7.338;2023-04-24T01:28:37;551.10;;;445.83;;
2762;SDS011;1389;51.490;7.338;2023-04-24T01:31:03;544.47;;;433.10;;
2762;SDS011;1389;51.490;7.338;2023-04-24T01:33:30;549.25;;;442.08;;
2762;SDS011;1389;51.490;7.338;2023-04-24T01:35:56;547.80;;;439.92;;
2762;SDS011;1389;51.490;7.338;2023-04-24T01:38:22;548.30;;;442.90;;
2762;SDS011;1389;51.490;7.338;2023-04-24T01:40:49;545.88;;;437.73;;
2762;SDS011;1389;51.490;7.338;2023-04-24T01:43:16;543.33;;;436.00;;
2762;SDS011;1389;51.490;7.338;2023-04-24T01:45:43;546.78;;;439.30;;
2762;SDS011;1389;51.490;7.338;2023-04-24T01:48:09;547.67;;;441.17;;
2762;SDS011;1389;51.490;7.338;2023-04-24T01:50:37;550.47;;;444.52;;
2762;SDS011;1389;51.490;7.338;2023-04-24T01:53:03;542.80;;;433.90;;
2762;SDS011;1389;51.490;7.338;2023-04-24T01:55:30;551.95;;;437.88;;
2762;SDS011;1389;51.490;7.338;2023-04-24T01:57:56;543.20;;;433.88;;
2762;SDS011;1389;51.490;7.338;2023-04-24T02:00:25;540.95;;;429.67;;
2762;SDS011;1389;51.490;7.338;2023-04-24T02:02:51;553.70;;;440.50;;
2762;SDS011;1389;51.490;7.338;2023-04-24T02:05:17;545.50;;;435.50;;
2762;SDS011;1389;51.490;7.338;2023-04-24T02:07:43;548.90;;;439.83;;
2762;SDS011;1389;51.490;7.338;2023-04-24T02:10:10;556.08;;;451.63;;
2762;SDS011;1389;51.490;7.338;2023-04-24T02:12:36;552.13;;;446.13;;
2762;SDS011;1389;51.490;7.338;2023-04-24T02:15:02;543.08;;;433.35;;
2762;SDS011;1389;51.490;7.338;2023-04-24T02:17:29;549.83;;;439.75;;
2762;SDS011;1389;51.490;7.338;2023-04-24T02:19:56;580.58;;;492.10;;
2762;SDS011;1389;51.490;7.338;2023-04-24T02:22:22;547.38;;;440.67;;
2762;SDS011;1389;51.490;7.338;2023-04-24T02:24:48;546.38;;;435.98;;
2762;SDS011;1389;51.490;7.338;2023-04-24T02:27:14;542.25;;;429.67;;
2762;SDS011;1389;51.490;7.338;2023-04-24T02:29:40;581.70;;;495.05;;
2762;SDS011;1389;51.490;7.338;2023-04-24T02:32:06;536.10;;;419.25;;
2762;SDS011;1389;51.490;7.338;2023-04-24T02:34:32;530.03;;;408.80;;
2762;SDS011;1389;51.490;7.338;2023-04-24T02:36:58;533.08;;;415.30;;
2762;SDS011;1389;51.490;7.338;2023-04-24T02:39:24;530.50;;;412.40;;
2762;SDS011;1389;51.490;7.338;2023-04-24T02:41:51;550.25;;;430.83;;
2762;SDS011;1389;51.490;7.338;2023-04-24T02:44:17;534.13;;;414.13;;
2762;SDS011;1389;51.490;7.338;2023-04-24T02:46:43;531.15;;;413.02;;
2762;SDS011;1389;51.490;7.338;2023-04-24T02:49:09;528.80;;;406.13;;
2762;SDS011;1389;51.490;7.338;2023-04-24T02:51:37;528.40;;;409.42;;
2762;SDS011;1389;51.490;7.338;2023-04-24T02:54:09;526.28;;;403.25;;
2762;SDS011;1389;51.490;7.338;2023-04-24T02:56:35;523.55;;;401.42;;
2762;SDS011;1389;51.490;7.338;2023-04-24T02:59:01;521.13;;;401.70;;
2762;SDS011;1389;51.490;7.338;2023-04-24T03:01:28;526.08;;;409.73;;
2762;SDS011;1389;51.490;7.338;2023-04-24T03:03:54;521.33;;;395.88;;
2762;SDS011;1389;51.490;7.338;2023-04-24T03:06:20;517.25;;;395.20;;
2762;SDS011;1389;51.490;7.338;2023-04-24T03:08:46;518.17;;;398.33;;
2762;SDS011;1389;51.490;7.338;2023-04-24T03:11:12;520.47;;;404.75;;
2762;SDS011;1389;51.490;7.338;2023-04-24T03:13:38;511.35;;;387.77;;
2762;SDS011;1389;51.490;7.338;2023-04-24T03:16:05;512.97;;;387.73;;
2762;SDS011;1389;51.490;7.338;2023-04-24T03:18:31;516.63;;;391.08;;
2762;SDS011;1389;51.490;7.338;2023-04-24T03:20:57;513.37;;;390.27;;
2762;SDS011;1389;51.490;7.338;2023-04-24T03:23:23;518.75;;;395.45;;
2762;SDS011;1389;51.490;7.338;2023-04-24T03:25:49;519.22;;;397.75;;
2762;SDS011;1389;51.490;7.338;2023-04-24T03:28:15;533.08;;;413.10;;
2762;SDS011;1389;51.490;7.338;2023-04-24T03:30:41;517.40;;;395.85;;
2762;SDS011;1389;51.490;7.338;2023-04-24T03:33:07;520.55;;;402.48;;
2762;SDS011;1389;51.490;7.338;2023-04-24T03:35:33;521.85;;;397.10;;
2762;SDS011;1389;51.490;7.338;2023-04-24T03:37:59;521.25;;;403.45;;
2762;SDS011;1389;51.490;7.338;2023-04-24T03:40:25;518.88;;;398.13;;
2762;SDS011;1389;51.490;7.338;2023-04-24T03:42:51;516.58;;;398.10;;
2762;SDS011;1389;51.490;7.338;2023-04-24T03:45:18;514.88;;;396.73;;
2762;SDS011;1389;51.490;7.338;2023-04-24T03:47:44;511.67;;;386.10;;
2762;SDS011;1389;51.490;7.338;2023-04-24T03:50:10;530.28;;;415.20;;
2762;SDS011;1389;51.490;7.338;2023-04-24T03:52:36;511.65;;;388.10;;
2762;SDS011;1389;51.490;7.338;2023-04-24T03:55:02;513.15;;;393.17;;
2762;SDS011;1389;51.490;7.338;2023-04-24T03:57:28;528.13;;;406.15;;
2762;SDS011;1389;51.490;7.338;2023-04-24T03:59:54;518.35;;;398.50;;
2762;SDS011;1389;51.490;7.338;2023-04-24T04:02:20;534.33;;;429.27;;
2762;SDS011;1389;51.490;7.338;2023-04-24T04:04:46;515.03;;;395.77;;
2762;SDS011;1389;51.490;7.338;2023-04-24T04:07:12;520.17;;;395.40;;
2762;SDS011;1389;51.490;7.338;2023-04-24T04:09:38;527.53;;;407.48;;
2762;SDS011;1389;51.490;7.338;2023-04-24T04:12:05;519.75;;;399.00;;
2762;SDS011;1389;51.490;7.338;2023-04-24T04:14:31;515.90;;;390.33;;
2762;SDS011;1389;51.490;7.338;2023-04-24T04:16:57;522.25;;;400.33;;
2762;SDS011;1389;51.490;7.338;2023-04-24T04:19:23;513.28;;;386.27;;
2762;SDS011;1389;51.490;7.338;2023-04-24T04:21:49;517.03;;;387.85;;
2762;SDS011;1389;51.490;7.338;2023-04-24T04:24:18;523.25;;;388.75;;
2762;SDS011;1389;51.490;7.338;2023-04-24T04:26:46;513.63;;;388.23;;
2762;SDS011;1389;51.490;7.338;2023-04-24T04:29:13;519.45;;;394.02;;
2762;SDS011;1389;51.490;7.338;2023-04-24T04:31:39;510.35;;;381.27;;
2762;SDS011;1389;51.490;7.338;2023-04-24T04:34:05;515.00;;;386.95;;
2762;SDS011;1389;51.490;7.338;2023-04-24T04:36:33;518.45;;;396.10;;
2762;SDS011;1389;51.490;7.338;2023-04-24T04:39:02;525.72;;;409.38;;
2762;SDS011;1389;51.490;7.338;2023-04-24T04:41:29;521.70;;;392.80;;
2762;SDS011;1389;51.490;7.338;2023-04-24T04:43:55;552.60;;;453.98;;
2762;SDS011;1389;51.490;7.338;2023-04-24T04:46:24;534.55;;;421.73;;
2762;SDS011;1389;51.490;7.338;2023-04-24T04:48:52;538.25;;;430.10;;
2762;SDS011;1389;51.490;7.338;2023-04-24T04:51:19;513.73;;;390.13;;
2762;SDS011;1389;51.490;7.338;2023-04-24T04:53:45;513.90;;;390.73;;
2762;SDS011;1389;51.490;7.338;2023-04-24T04:56:11;524.85;;;402.98;;
2762;SDS011;1389;51.490;7.338;2023-04-24T04:58:37;523.10;;;404.43;;
2762;SDS011;1389;51.490;7.338;2023-04-24T05:01:03;515.00;;;393.75;;
2762;SDS011;1389;51.490;7.338;2023-04-24T05:03:30;524.47;;;407.75;;
2762;SDS011;1389;51.490;7.338;2023-04-24T05:05:57;515.97;;;396.35;;
2762;SDS011;1389;51.490;7.338;2023-04-24T05:08:23;579.58;;;486.58;;
2762;SDS011;1389;51.490;7.338;2023-04-24T05:10:49;516.42;;;391.85;;
2762;SDS011;1389;51.490;7.338;2023-04-24T05:13:15;523.80;;;404.73;;
2762;SDS011;1389;51.490;7.338;2023-04-24T05:15:41;511.38;;;382.75;;
2762;SDS011;1389;51.490;7.338;2023-04-24T05:18:07;517.23;;;395.67;;
2762;SDS011;1389;51.490;7.338;2023-04-24T05:20:33;531.38;;;416.92;;
2762;SDS011;1389;51.490;7.338;2023-04-24T05:22:59;516.78;;;392.65;;
2762;SDS011;1389;51.490;7.338;2023-04-24T05:25:25;534.97;;;420.92;;
2762;SDS011;1389;51.490;7.338;2023-04-24T05:27:51;557.47;;;450.40;;
2762;SDS011;1389;51.490;7.338;2023-04-24T05:30:18;522.97;;;402.35;;
2762;SDS011;1389;51.490;7.338;2023-04-24T05:32:45;519.75;;;396.48;;
2762;SDS011;1389;51.490;7.338;2023-04-24T05:35:11;539.20;;;415.67;;
2762;SDS011;1389;51.490;7.338;2023-04-24T05:37:37;522.30;;;391.65;;
2762;SDS011;1389;51.490;7.338;2023-04-24T05:40:03;542.88;;;429.95;;
2762;SDS011;1389;51.490;7.338;2023-04-24T05:42:31;606.10;;;524.63;;
2762;SDS011;1389;51.490;7.338;2023-04-24T05:44:57;520.47;;;399.15;;
2762;SDS011;1389;51.490;7.338;2023-04-24T05:47:23;539.90;;;428.30;;
2762;SDS011;1389;51.490;7.338;2023-04-24T05:49:49;634.33;;;569.90;;
2762;SDS011;1389;51.490;7.338;2023-04-24T05:52:15;552.90;;;452.50;;
2762;SDS011;1389;51.490;7.338;2023-04-24T05:54:42;528.15;;;413.17;;
2762;SDS011;1389;51.490;7.338;2023-04-24T05:57:08;529.78;;;410.70;;
2762;SDS011;1389;51.490;7.338;2023-04-24T05:59:36;534.67;;;420.75;;
2762;SDS011;1389;51.490;7.338;2023-04-24T06:02:02;506.00;;;376.33;;
2762;SDS011;1389;51.490;7.338;2023-04-24T06:04:28;521.03;;;403.67;;
2762;SDS011;1389;51.490;7.338;2023-04-24T06:06:54;512.03;;;383.48;;
2762;SDS011;1389;51.490;7.338;2023-04-24T06:09:21;515.40;;;386.27;;
2762;SDS011;1389;51.490;7.338;2023-04-24T06:11:48;489.98;;;348.70;;
2762;SDS011;1389;51.490;7.338;2023-04-24T06:14:18;518.28;;;389.83;;
2762;SDS011;1389;51.490;7.338;2023-04-24T06:16:44;510.05;;;378.40;;
2762;SDS011;1389;51.490;7.338;2023-04-24T06:19:10;497.60;;;356.80;;
2762;SDS011;1389;51.490;7.338;2023-04-24T06:21:36;501.70;;;365.40;;
2762;SDS011;1389;51.490;7.338;2023-04-24T06:24:02;502.52;;;371.30;;
2762;SDS011;1389;51.490;7.338;2023-04-24T06:26:29;525.70;;;404.60;;
2762;SDS011;1389;51.490;7.338;2023-04-24T06:28:56;511.23;;;386.05;;
2762;SDS011;1389;51.490;7.338;2023-04-24T06:31:23;497.23;;;361.47;;
2762;SDS011;1389;51.490;7.338;2023-04-24T06:33:50;604.97;;;517.17;;
2762;SDS011;1389;51.490;7.338;2023-04-24T06:36:16;506.20;;;377.38;;
2762;SDS011;1389;51.490;7.338;2023-04-24T06:38:42;490.10;;;353.50;;
2762;SDS011;1389;51.490;7.338;2023-04-24T06:41:09;494.88;;;354.00;;
2762;SDS011;1389;51.490;7.338;2023-04-24T06:43:35;516.08;;;380.48;;
2762;SDS011;1389;51.490;7.338;2023-04-24T06:46:01;518.70;;;393.30;;
2762;SDS011;1389;51.490;7.338;2023-04-24T06:48:28;492.20;;;351.25;;
2762;SDS011;1389;51.490;7.338;2023-04-24T06:50:55;498.52;;;361.10;;
2762;SDS011;1389;51.490;7.338;2023-04-24T06:53:21;499.38;;;354.75;;
2762;SDS011;1389;51.490;7.338;2023-04-24T06:55:47;518.63;;;390.40;;
2762;SDS011;1389;51.490;7.338;2023-04-24T06:58:13;494.75;;;352.13;;
2762;SDS011;1389;51.490;7.338;2023-04-24T07:00:40;515.47;;;379.70;;
2762;SDS011;1389;51.490;7.338;2023-04-24T07:03:06;487.65;;;345.67;;
2762;SDS011;1389;51.490;7.338;2023-04-24T07:05:32;490.27;;;352.90;;
2762;SDS011;1389;51.490;7.338;2023-04-24T07:08:01;483.60;;;341.40;;
2762;SDS011;1389;51.490;7.338;2023-04-24T07:10:27;508.23;;;378.10;;
2762;SDS011;1389;51.490;7.338;2023-04-24T07:12:54;487.08;;;343.45;;
2762;SDS011;1389;51.490;7.338;2023-04-24T07:15:22;509.98;;;384.92;;
2762;SDS011;1389;51.490;7.338;2023-04-24T07:17:49;487.45;;;349.65;;
2762;SDS011;1389;51.490;7.338;2023-04-24T07:20:15;497.25;;;353.30;;
2762;SDS011;1389;51.490;7.338;2023-04-24T07:22:41;492.77;;;349.27;;
2762;SDS011;1389;51.490;7.338;2023-04-24T07:25:07;494.55;;;349.20;;
2762;SDS011;1389;51.490;7.338;2023-04-24T07:27:34;484.40;;;341.60;;
2762;SDS011;1389;51.490;7.338;2023-04-24T07:30:02;488.65;;;350.67;;
2762;SDS011;1389;51.490;7.338;2023-04-24T07:32:29;485.23;;;345.67;;
2762;SDS011;1389;51.490;7.338;2023-04-24T07:34:55;492.27;;;353.90;;
2762;SDS011;1389;51.490;7.338;2023-04-24T07:37:22;519.42;;;393.88;;
2762;SDS011;1389;51.490;7.338;2023-04-24T07:39:48;527.00;;;393.77;;
2762;SDS011;1389;51.490;7.338;2023-04-24T07:42:14;491.48;;;354.33;;
2762;SDS011;1389;51.490;7.338;2023-04-24T07:44:40;494.02;;;356.90;;
2762;SDS011;1389;51.490;7.338;2023-04-24T07:47:06;476.20;;;333.02;;
2762;SDS011;1389;51.490;7.338;2023-04-24T07:49:33;495.77;;;354.80;;
2762;SDS011;1389;51.490;7.338;2023-04-24T07:52:00;478.17;;;331.50;;
2762;SDS011;1389;51.490;7.338;2023-04-24T07:54:28;497.35;;;360.15;;
2762;SDS011;1389;51.490;7.338;2023-04-24T07:56:54;511.63;;;384.45;;
2762;SDS011;1389;51.490;7.338;2023-04-24T07:59:20;476.13;;;332.52;;
2762;SDS011;1389;51.490;7.338;2023-04-24T08:01:46;496.90;;;365.35;;
2762;SDS011;1389;51.490;7.338;2023-04-24T08:04:12;473.60;;;324.50;;
2762;SDS011;1389;51.490;7.338;2023-04-24T08:06:38;497.67;;;366.30;;
2762;SDS011;1389;51.490;7.338;2023-04-24T08:09:04;467.38;;;319.10;;
2762;SDS011;1389;51.490;7.338;2023-04-24T08:11:30;469.77;;;318.45;;
2762;SDS011;1389;51.490;7.338;2023-04-24T08:13:57;484.05;;;341.45;;
2762;SDS011;1389;51.490;7.338;2023-04-24T08:16:23;462.05;;;312.63;;
2762;SDS011;1389;51.490;7.338;2023-04-24T08:18:49;478.63;;;331.90;;
2762;SDS011;1389;51.490;7.338;2023-04-24T08:21:16;472.38;;;322.50;;
2762;SDS011;1389;51.490;7.338;2023-04-24T08:23:44;470.77;;;320.23;;
2762;SDS011;1389;51.490;7.338;2023-04-24T08:26:13;486.35;;;335.70;;
2762;SDS011;1389;51.490;7.338;2023-04-24T08:28:40;475.30;;;319.17;;
2762;SDS011;1389;51.490;7.338;2023-04-24T08:31:06;483.13;;;340.08;;
2762;SDS011;1389;51.490;7.338;2023-04-24T08:33:32;455.27;;;301.85;;
2762;SDS011;1389;51.490;7.338;2023-04-24T08:36:01;450.67;;;285.50;;
2762;SDS011;1389;51.490;7.338;2023-04-24T08:38:28;439.15;;;268.38;;
2762;SDS011;1389;51.490;7.338;2023-04-24T08:40:54;444.20;;;279.02;;
2762;SDS011;1389;51.490;7.338;2023-04-24T08:43:22;441.97;;;276.30;;
2762;SDS011;1389;51.490;7.338;2023-04-24T08:45:48;438.42;;;266.10;;
2762;SDS011;1389;51.490;7.338;2023-04-24T08:48:15;449.83;;;284.23;;
2762;SDS011;1389;51.490;7.338;2023-04-24T08:50:42;442.25;;;272.23;;
2762;SDS011;1389;51.490;7.338;2023-04-24T08:53:10;447.23;;;284.90;;
2762;SDS011;1389;51.490;7.338;2023-04-24T08:55:37;472.17;;;322.48;;
2762;SDS011;1389;51.490;7.338;2023-04-24T08:58:03;443.30;;;275.00;;
2762;SDS011;1389;51.490;7.338;2023-04-24T09:00:30;446.58;;;291.65;;
2762;SDS011;1389;51.490;7.338;2023-04-24T09:02:56;431.70;;;261.58;;
2762;SDS011;1389;51.490;7.338;2023-04-24T09:05:23;483.90;;;338.02;;
2762;SDS011;1389;51.490;7.338;2023-04-24T09:07:49;434.77;;;267.60;;
2762;SDS011;1389;51.490;7.338;2023-04-24T09:10:23;446.38;;;282.35;;
2762;SDS011;1389;51.490;7.338;2023-04-24T09:12:50;458.30;;;303.48;;
2762;SDS011;1389;51.490;7.338;2023-04-24T09:15:18;454.25;;;304.45;;
2762;SDS011;1389;51.490;7.338;2023-04-24T09:17:46;420.73;;;249.07;;
2762;SDS011;1389;51.490;7.338;2023-04-24T09:20:12;423.45;;;250.07;;
2762;SDS011;1389;51.490;7.338;2023-04-24T09:22:38;445.80;;;279.38;;
2762;SDS011;1389;51.490;7.338;2023-04-24T09:25:05;444.40;;;281.88;;
2762;SDS011;1389;51.490;7.338;2023-04-24T09:27:33;443.10;;;282.45;;
2762;SDS011;1389;51.490;7.338;2023-04-24T09:29:59;438.90;;;271.58;;
2762;SDS011;1389;51.490;7.338;2023-04-24T09:32:26;419.40;;;247.25;;
2762;SDS011;1389;51.490;7.338;2023-04-24T09:35:04;450.60;;;298.45;;
2762;SDS011;1389;51.490;7.338;2023-04-24T09:37:40;434.25;;;275.50;;
2762;SDS011;1389;51.490;7.338;2023-04-24T09:40:17;419.25;;;246.20;;
2762;SDS011;1389;51.490;7.338;2023-04-24T09:42:52;405.90;;;228.32;;
2762;SDS011;1389;51.490;7.338;2023-04-24T09:45:18;417.00;;;248.30;;
2762;SDS011;1389;51.490;7.338;2023-04-24T09:47:45;414.03;;;238.50;;
2762;SDS011;1389;51.490;7.338;2023-04-24T09:50:15;499.75;;;360.73;;
2762;SDS011;1389;51.490;7.338;2023-04-24T09:52:46;497.27;;;364.17;;
2762;SDS011;1389;51.490;7.338;2023-04-24T09:55:21;485.98;;;346.33;;
2762;SDS011;1389;51.490;7.338;2023-04-24T09:57:47;497.70;;;363.75;;
2762;SDS011;1389;51.490;7.338;2023-04-24T10:00:20;482.58;;;337.20;;
2762;SDS011;1389;51.490;7.338;2023-04-24T10:02:54;569.85;;;473.95;;
2762;SDS011;1389;51.490;7.338;2023-04-24T10:05:34;530.60;;;412.25;;
2762;SDS011;1389;51.490;7.338;2023-04-24T10:08:02;557.17;;;449.33;;
2762;SDS011;1389;51.490;7.338;2023-04-24T10:10:30;482.50;;;339.20;;
2762;SDS011;1389;51.490;7.338;2023-04-24T10:12:57;484.25;;;334.00;;
2762;SDS011;1389;51.490;7.338;2023-04-24T10:15:24;532.50;;;411.55;;
2762;SDS011;1389;51.490;7.338;2023-04-24T10:17:51;492.15;;;340.05;;
2762;SDS011;1389;51.490;7.338;2023-04-24T10:20:19;510.38;;;367.80;;
2762;SDS011;1389;51.490;7.338;2023-04-24T10:22:48;526.40;;;402.10;;
2762;SDS011;1389;51.490;7.338;2023-04-24T10:25:16;464.42;;;305.17;;
2762;SDS011;1389;51.490;7.338;2023-04-24T10:27:44;526.75;;;396.52;;
2762;SDS011;1389;51.490;7.338;2023-04-24T10:30:12;544.03;;;435.27;;
2762;SDS011;1389;51.490;7.338;2023-04-24T10:32:38;486.23;;;342.70;;
2762;SDS011;1389;51.490;7.338;2023-04-24T10:35:06;479.45;;;324.52;;
2762;SDS011;1389;51.490;7.338;2023-04-24T10:38:16;473.00;;;321.23;;
2762;SDS011;1389;51.490;7.338;2023-04-24T10:40:31;446.33;;;282.37;;
2762;SDS011;1389;51.490;7.338;2023-04-24T10:43:01;523.53;;;401.33;;
2762;SDS011;1389;51.490;7.338;2023-04-24T10:45:30;468.30;;;304.38;;
2762;SDS011;1389;51.490;7.338;2023-04-24T10:47:57;458.80;;;296.85;;
2762;SDS011;1389;51.490;7.338;2023-04-24T10:50:25;453.98;;;285.33;;
2762;SDS011;1389;51.490;7.338;2023-04-24T10:52:53;449.95;;;286.90;;
2762;SDS011;1389;51.490;7.338;2023-04-24T10:55:39;460.02;;;296.08;;
2762;SDS011;1389;51.490;7.338;2023-04-24T10:58:13;442.42;;;275.92;;
2762;SDS011;1389;51.490;7.338;2023-04-24T11:00:42;459.60;;;297.98;;
2762;SDS011;1389;51.490;7.338;2023-04-24T11:03:26;466.58;;;298.42;;
2762;SDS011;1389;51.490;7.338;2023-04-24T11:08:25;490.33;;;345.87;;
2762;SDS011;1389;51.490;7.338;2023-04-24T11:11:10;469.42;;;316.95;;
2762;SDS011;1389;51.490;7.338;2023-04-24T11:21:42;461.90;;;298.38;;
2762;SDS011;1389;51.490;7.338;2023-04-24T11:29:39;451.30;;;287.23;;
2762;SDS011;1389;51.490;7.338;2023-04-24T11:34:49;450.55;;;281.25;;
2762;SDS011;1389;51.490;7.338;2023-04-24T11:37:16;432.83;;;262.35;;
2762;SDS011;1389;51.490;7.338;2023-04-24T11:39:43;438.95;;;269.05;;
2762;SDS011;1389;51.490;7.338;2023-04-24T11:42:09;446.00;;;276.40;;
2762;SDS011;1389;51.490;7.338;2023-04-24T11:44:35;431.70;;;254.65;;
2762;SDS011;1389;51.490;7.338;2023-04-24T11:47:05;439.50;;;266.48;;
2762;SDS011;1389;51.490;7.338;2023-04-24T11:49:38;433.30;;;256.00;;
2762;SDS011;1389;51.490;7.338;2023-04-24T11:52:04;453.75;;;286.17;;
2762;SDS011;1389;51.490;7.338;2023-04-24T11:54:30;445.00;;;267.57;;
2762;SDS011;1389;51.490;7.338;2023-04-24T11:56:57;430.25;;;250.73;;
2762;SDS011;1389;51.490;7.338;2023-04-24T11:59:23;456.10;;;285.10;;
2762;SDS011;1389;51.490;7.338;2023-04-24T12:01:49;473.88;;;312.45;;
2762;SDS011;1389;51.490;7.338;2023-04-24T12:04:16;435.30;;;258.52;;
2762;SDS011;1389;51.490;7.338;2023-04-24T12:07:04;459.13;;;296.77;;
2762;SDS011;1389;51.490;7.338;2023-04-24T12:09:49;465.98;;;298.88;;
2762;SDS011;1389;51.490;7.338;2023-04-24T12:12:23;442.30;;;270.50;;
2762;SDS011;1389;51.490;7.338;2023-04-24T12:14:57;457.40;;;292.98;;
2762;SDS011;1389;51.490;7.338;2023-04-24T12:17:28;447.58;;;278.52;;
2762;SDS011;1389;51.490;7.338;2023-04-24T12:19:59;445.73;;;271.33;;
2762;SDS011;1389;51.490;7.338;2023-04-24T12:22:28;441.02;;;266.33;;
2762;SDS011;1389;51.490;7.338;2023-04-24T12:25:13;462.98;;;302.15;;
2762;SDS011;1389;51.490;7.338;2023-04-24T12:27:44;445.90;;;267.05;;
2762;SDS011;1389;51.490;7.338;2023-04-24T12:30:12;437.58;;;260.10;;
2762;SDS011;1389;51.490;7.338;2023-04-24T12:32:41;431.45;;;251.25;;
2762;SDS011;1389;51.490;7.338;2023-04-24T12:35:12;457.77;;;285.15;;
2762;SDS011;1389;51.490;7.338;2023-04-24T12:37:38;457.08;;;285.92;;
2762;SDS011;1389;51.490;7.338;2023-04-24T12:40:09;434.35;;;255.05;;
2762;SDS011;1389;51.490;7.338;2023-04-24T12:42:49;475.88;;;312.85;;
2762;SDS011;1389;51.490;7.338;2023-04-24T12:45:17;502.47;;;349.13;;
2762;SDS011;1389;51.490;7.338;2023-04-24T12:47:45;470.92;;;302.98;;
2762;SDS011;1389;51.490;7.338;2023-04-24T12:50:12;461.02;;;287.10;;
2762;SDS011;1389;51.490;7.338;2023-04-24T12:52:40;463.92;;;295.27;;
2762;SDS011;1389;51.490;7.338;2023-04-24T12:55:06;462.95;;;295.75;;
2762;SDS011;1389;51.490;7.338;2023-04-24T12:57:33;452.10;;;281.48;;
2762;SDS011;1389;51.490;7.338;2023-04-24T13:00:01;465.90;;;300.13;;
2762;SDS011;1389;51.490;7.338;2023-04-24T13:02:29;529.95;;;402.60;;
2762;SDS011;1389;51.490;7.338;2023-04-24T13:05:00;516.58;;;384.00;;
2762;SDS011;1389;51.490;7.338;2023-04-24T13:07:26;465.38;;;301.45;;
2762;SDS011;1389;51.490;7.338;2023-04-24T13:09:53;466.67;;;300.52;;
2762;SDS011;1389;51.490;7.338;2023-04-24T13:12:20;468.42;;;304.65;;
2762;SDS011;1389;51.490;7.338;2023-04-24T13:14:48;466.15;;;300.77;;
2762;SDS011;1389;51.490;7.338;2023-04-24T13:17:14;516.03;;;381.37;;
2762;SDS011;1389;51.490;7.338;2023-04-24T13:19:41;479.45;;;320.35;;
2762;SDS011;1389;51.490;7.338;2023-04-24T13:22:10;477.20;;;315.67;;
2762;SDS011;1389;51.490;7.338;2023-04-24T13:24:37;500.95;;;347.98;;
2762;SDS011;1389;51.490;7.338;2023-04-24T13:27:06;483.70;;;325.63;;
2762;SDS011;1389;51.490;7.338;2023-04-24T13:29:32;492.85;;;336.50;;
2762;SDS011;1389;51.490;7.338;2023-04-24T13:31:58;483.45;;;324.33;;
2762;SDS011;1389;51.490;7.338;2023-04-24T13:34:25;506.35;;;353.33;;
2762;SDS011;1389;51.490;7.338;2023-04-24T13:36:56;500.08;;;354.77;;
2762;SDS011;1389;51.490;7.338;2023-04-24T13:39:23;521.43;;;391.73;;
2762;SDS011;1389;51.490;7.338;2023-04-24T13:41:50;524.85;;;391.42;;
2762;SDS011;1389;51.490;7.338;2023-04-24T13:44:17;492.08;;;337.17;;
2762;SDS011;1389;51.490;7.338;2023-04-24T13:46:45;580.47;;;495.60;;
2762;SDS011;1389;51.490;7.338;2023-04-24T13:49:12;491.52;;;339.48;;
2762;SDS011;1389;51.490;7.338;2023-04-24T13:51:39;501.50;;;354.38;;
2762;SDS011;1389;51.490;7.338;2023-04-24T13:54:06;562.17;;;452.83;;
2762;SDS011;1389;51.490;7.338;2023-04-24T13:56:32;535.97;;;410.63;;
2762;SDS011;1389;51.490;7.338;2023-04-24T13:58:58;495.13;;;345.17;;
2762;SDS011;1389;51.490;7.338;2023-04-24T14:01:24;538.92;;;417.55;;
2762;SDS011;1389;51.490;7.338;2023-04-24T14:03:51;493.52;;;340.05;;
2762;SDS011;1389;51.490;7.338;2023-04-24T14:06:18;493.13;;;343.45;;
2762;SDS011;1389;51.490;7.338;2023-04-24T14:08:45;517.28;;;384.85;;
2762;SDS011;1389;51.490;7.338;2023-04-24T14:11:11;478.33;;;315.05;;
2762;SDS011;1389;51.490;7.338;2023-04-24T14:13:38;499.48;;;349.88;;
2762;SDS011;1389;51.490;7.338;2023-04-24T14:16:06;525.13;;;399.55;;
2762;SDS011;1389;51.490;7.338;2023-04-24T14:18:32;500.38;;;351.20;;
2762;SDS011;1389;51.490;7.338;2023-04-24T14:20:58;569.97;;;451.80;;
2762;SDS011;1389;51.490;7.338;2023-04-24T14:23:24;487.50;;;320.23;;
2762;SDS011;1389;51.490;7.338;2023-04-24T14:25:50;519.42;;;372.40;;
2762;SDS011;1389;51.490;7.338;2023-04-24T14:28:18;502.10;;;354.25;;
2762;SDS011;1389;51.490;7.338;2023-04-24T14:30:44;497.70;;;347.55;;
2762;SDS011;1389;51.490;7.338;2023-04-24T14:33:11;515.90;;;378.15;;
2762;SDS011;1389;51.490;7.338;2023-04-24T14:35:38;498.02;;;344.10;;
2762;SDS011;1389;51.490;7.338;2023-04-24T14:38:05;523.70;;;392.40;;
2762;SDS011;1389;51.490;7.338;2023-04-24T14:40:31;500.40;;;351.63;;